sensor_id;sensor_type;location;lat;lon;timestamp;temperature;humidity
33328;DHT22;19692;52.998;9.116;2022-10-24T00:01:50;13.70;99.90
33328;DHT22;19692;52.998;9.116;2022-10-24T00:04:16;13.70;99.90
33328;DHT22;19692;52.998;9.116;2022-10-24T00:06:42;13.60;99.90
33328;DHT22;19692;52.998;9.116;2022-10-24T00:09:08;13.70;99.90
33328;DHT22;19692;52.998;9.116;2022-10-24T00:11:34;13.60;99.90
33328;DHT22;19692;52.998;9.116;2022-10-24T00:14:00;13.60;99.90
33328;DHT22;19692;52.998;9.116;2022-10-24T00:16:27;13.60;99.90
33328;DHT22;19692;52.998;9.116;2022-10-24T00:18:53;13.50;99.90
33328;DHT22;19692;52.998;9.116;2022-10-24T00:21:19;13.50;99.90
33328;DHT22;19692;52.998;9.116;2022-10-24T00:23:45;13.50;99.90
33328;DHT22;19692;52.998;9.116;2022-10-24T00:26:11;13.50;99.90
33328;DHT22;19692;52.998;9.116;2022-10-24T00:28:39;13.40;99.90
33328;DHT22;19692;52.998;9.116;2022-10-24T00:31:06;13.40;99.90
33328;DHT22;19692;52.998;9.116;2022-10-24T00:33:35;13.40;99.90
33328;DHT22;19692;52.998;9.116;2022-10-24T00:36:02;13.40;99.90
33328;DHT22;19692;52.998;9.116;2022-10-24T00:38:28;13.40;99.90
33328;DHT22;19692;52.998;9.116;2022-10-24T00:40:53;13.40;99.90
33328;DHT22;19692;52.998;9.116;2022-10-24T00:43:24;13.40;99.90
33328;DHT22;19692;52.998;9.116;2022-10-24T00:45:58;13.50;99.90
33328;DHT22;19692;52.998;9.116;2022-10-24T00:51:13;13.60;99.90
33328;DHT22;19692;52.998;9.116;2022-10-24T00:53:46;13.60;99.90
33328;DHT22;19692;52.998;9.116;2022-10-24T00:56:16;13.60;99.90
33328;DHT22;19692;52.998;9.116;2022-10-24T00:58:44;13.70;99.90
33328;DHT22;19692;52.998;9.116;2022-10-24T01:01:11;13.80;99.90
33328;DHT22;19692;52.998;9.116;2022-10-24T01:03:37;13.70;99.90
33328;DHT22;19692;52.998;9.116;2022-10-24T01:14:55;13.70;99.90
33328;DHT22;19692;52.998;9.116;2022-10-24T01:17:42;13.70;99.90
33328;DHT22;19692;52.998;9.116;2022-10-24T01:20:28;13.70;99.90
33328;DHT22;19692;52.998;9.116;2022-10-24T01:24:01;13.70;99.90
33328;DHT22;19692;52.998;9.116;2022-10-24T01:32:06;13.60;99.90
33328;DHT22;19692;52.998;9.116;2022-10-24T01:35:10;13.50;99.90
33328;DHT22;19692;52.998;9.116;2022-10-24T01:38:02;13.50;99.90
33328;DHT22;19692;52.998;9.116;2022-10-24T01:40:48;13.40;99.90
33328;DHT22;19692;52.998;9.116;2022-10-24T01:43:18;13.40;99.90
33328;DHT22;19692;52.998;9.116;2022-10-24T01:46:10;13.40;99.90
33328;DHT22;19692;52.998;9.116;2022-10-24T01:48:41;13.30;99.90
33328;DHT22;19692;52.998;9.116;2022-10-24T01:51:12;13.30;99.90
33328;DHT22;19692;52.998;9.116;2022-10-24T01:53:41;13.30;99.90
33328;DHT22;19692;52.998;9.116;2022-10-24T01:56:08;13.30;99.90
33328;DHT22;19692;52.998;9.116;2022-10-24T01:58:34;13.30;99.90
33328;DHT22;19692;52.998;9.116;2022-10-24T02:01:03;13.30;99.90
33328;DHT22;19692;52.998;9.116;2022-10-24T02:03:50;13.20;99.90
33328;DHT22;19692;52.998;9.116;2022-10-24T02:06:26;13.20;99.90
33328;DHT22;19692;52.998;9.116;2022-10-24T02:08:58;13.20;99.90
33328;DHT22;19692;52.998;9.116;2022-10-24T02:11:27;13.20;99.90
33328;DHT22;19692;52.998;9.116;2022-10-24T02:14:16;13.20;99.90
33328;DHT22;19692;52.998;9.116;2022-10-24T02:16:43;13.10;99.90
33328;DHT22;19692;52.998;9.116;2022-10-24T02:19:10;13.20;99.90
33328;DHT22;19692;52.998;9.116;2022-10-24T02:21:43;13.20;99.90
33328;DHT22;19692;52.998;9.116;2022-10-24T02:24:26;13.10;99.90
33328;DHT22;19692;52.998;9.116;2022-10-24T02:29:59;13.10;99.90
33328;DHT22;19692;52.998;9.116;2022-10-24T02:32:45;13.10;99.90
33328;DHT22;19692;52.998;9.116;2022-10-24T02:35:16;13.10;99.90
33328;DHT22;19692;52.998;9.116;2022-10-24T02:37:46;13.10;99.90
33328;DHT22;19692;52.998;9.116;2022-10-24T02:40:16;13.20;99.90
33328;DHT22;19692;52.998;9.116;2022-10-24T02:42:45;13.10;99.90
33328;DHT22;19692;52.998;9.116;2022-10-24T02:45:13;13.20;99.90
33328;DHT22;19692;52.998;9.116;2022-10-24T02:47:41;13.10;99.90
33328;DHT22;19692;52.998;9.116;2022-10-24T02:50:09;13.10;99.90
33328;DHT22;19692;52.998;9.116;2022-10-24T02:52:37;13.00;99.90
33328;DHT22;19692;52.998;9.116;2022-10-24T02:55:04;12.90;99.90
33328;DHT22;19692;52.998;9.116;2022-10-24T02:57:30;12.80;99.90
33328;DHT22;19692;52.998;9.116;2022-10-24T02:59:56;12.80;99.90
33328;DHT22;19692;52.998;9.116;2022-10-24T03:02:22;12.80;99.90
33328;DHT22;19692;52.998;9.116;2022-10-24T03:04:48;12.80;99.90
33328;DHT22;19692;52.998;9.116;2022-10-24T03:07:14;12.90;99.90
33328;DHT22;19692;52.998;9.116;2022-10-24T03:09:40;12.80;99.90
33328;DHT22;19692;52.998;9.116;2022-10-24T03:12:05;12.90;99.90
33328;DHT22;19692;52.998;9.116;2022-10-24T03:14:31;12.90;99.90
33328;DHT22;19692;52.998;9.116;2022-10-24T03:16:57;12.90;99.90
33328;DHT22;19692;52.998;9.116;2022-10-24T03:19:23;12.90;99.90
33328;DHT22;19692;52.998;9.116;2022-10-24T03:21:49;13.00;99.90
33328;DHT22;19692;52.998;9.116;2022-10-24T03:24:16;12.90;99.90
33328;DHT22;19692;52.998;9.116;2022-10-24T03:26:41;12.90;99.90
33328;DHT22;19692;52.998;9.116;2022-10-24T03:29:09;12.90;99.90
33328;DHT22;19692;52.998;9.116;2022-10-24T03:31:38;12.80;99.90
33328;DHT22;19692;52.998;9.116;2022-10-24T03:34:04;12.80;99.90
33328;DHT22;19692;52.998;9.116;2022-10-24T03:36:30;12.70;99.90
33328;DHT22;19692;52.998;9.116;2022-10-24T03:38:56;12.70;99.90
33328;DHT22;19692;52.998;9.116;2022-10-24T03:41:21;12.70;99.90
33328;DHT22;19692;52.998;9.116;2022-10-24T03:43:47;12.70;99.90
33328;DHT22;19692;52.998;9.116;2022-10-24T03:46:13;12.70;99.90
33328;DHT22;19692;52.998;9.116;2022-10-24T03:48:39;12.70;99.90
33328;DHT22;19692;52.998;9.116;2022-10-24T03:51:05;12.70;99.90
33328;DHT22;19692;52.998;9.116;2022-10-24T03:53:30;12.70;99.90
33328;DHT22;19692;52.998;9.116;2022-10-24T03:55:56;12.70;99.90
33328;DHT22;19692;52.998;9.116;2022-10-24T03:58:22;12.60;99.90
33328;DHT22;19692;52.998;9.116;2022-10-24T04:00:48;12.70;99.90
33328;DHT22;19692;52.998;9.116;2022-10-24T04:03:14;12.70;99.90
33328;DHT22;19692;52.998;9.116;2022-10-24T04:05:40;12.60;99.90
33328;DHT22;19692;52.998;9.116;2022-10-24T04:08:06;12.60;99.90
33328;DHT22;19692;52.998;9.116;2022-10-24T04:10:31;12.60;99.90
33328;DHT22;19692;52.998;9.116;2022-10-24T04:12:57;12.60;99.90
33328;DHT22;19692;52.998;9.116;2022-10-24T04:15:23;12.60;99.90
33328;DHT22;19692;52.998;9.116;2022-10-24T04:17:49;12.60;99.90
33328;DHT22;19692;52.998;9.116;2022-10-24T04:20:15;12.50;99.90
33328;DHT22;19692;52.998;9.116;2022-10-24T04:22:44;12.60;99.90
33328;DHT22;19692;52.998;9.116;2022-10-24T04:25:10;12.60;99.90
33328;DHT22;19692;52.998;9.116;2022-10-24T04:27:36;12.60;99.90
33328;DHT22;19692;52.998;9.116;2022-10-24T04:30:06;12.60;99.90
33328;DHT22;19692;52.998;9.116;2022-10-24T04:32:33;12.60;99.90
33328;DHT22;19692;52.998;9.116;2022-10-24T04:35:00;12.60;99.90
33328;DHT22;19692;52.998;9.116;2022-10-24T04:37:26;12.60;99.90
33328;DHT22;19692;52.998;9.116;2022-10-24T04:39:52;12.60;99.90
33328;DHT22;19692;52.998;9.116;2022-10-24T04:42:22;12.60;99.90
33328;DHT22;19692;52.998;9.116;2022-10-24T04:44:48;12.60;99.90
33328;DHT22;19692;52.998;9.116;2022-10-24T04:47:14;12.60;99.90
33328;DHT22;19692;52.998;9.116;2022-10-24T04:49:40;12.50;99.90
33328;DHT22;19692;52.998;9.116;2022-10-24T04:52:05;12.60;99.90
33328;DHT22;19692;52.998;9.116;2022-10-24T04:54:31;12.60;99.90
33328;DHT22;19692;52.998;9.116;2022-10-24T04:56:57;12.60;99.90
33328;DHT22;19692;52.998;9.116;2022-10-24T04:59:23;12.60;99.90
33328;DHT22;19692;52.998;9.116;2022-10-24T05:01:49;12.60;99.90
33328;DHT22;19692;52.998;9.116;2022-10-24T05:04:14;12.60;99.90
33328;DHT22;19692;52.998;9.116;2022-10-24T05:06:41;12.70;99.90
33328;DHT22;19692;52.998;9.116;2022-10-24T05:09:07;12.60;99.90
33328;DHT22;19692;52.998;9.116;2022-10-24T05:11:32;12.60;99.90
33328;DHT22;19692;52.998;9.116;2022-10-24T05:13:58;12.60;99.90
33328;DHT22;19692;52.998;9.116;2022-10-24T05:16:24;12.60;99.90
33328;DHT22;19692;52.998;9.116;2022-10-24T05:18:50;12.70;99.90
33328;DHT22;19692;52.998;9.116;2022-10-24T05:21:15;12.60;99.90
33328;DHT22;19692;52.998;9.116;2022-10-24T05:23:41;12.70;99.90
33328;DHT22;19692;52.998;9.116;2022-10-24T05:26:07;12.60;99.90
33328;DHT22;19692;52.998;9.116;2022-10-24T05:28:33;12.70;99.90
33328;DHT22;19692;52.998;9.116;2022-10-24T05:30:59;12.70;99.90
33328;DHT22;19692;52.998;9.116;2022-10-24T05:33:25;12.70;99.90
33328;DHT22;19692;52.998;9.116;2022-10-24T05:35:51;12.70;99.90
33328;DHT22;19692;52.998;9.116;2022-10-24T05:38:17;12.70;99.90
33328;DHT22;19692;52.998;9.116;2022-10-24T05:40:43;12.60;99.90
33328;DHT22;19692;52.998;9.116;2022-10-24T05:43:14;12.70;99.90
33328;DHT22;19692;52.998;9.116;2022-10-24T05:45:40;12.60;99.90
33328;DHT22;19692;52.998;9.116;2022-10-24T05:48:06;12.70;99.90
33328;DHT22;19692;52.998;9.116;2022-10-24T05:50:33;12.80;99.90
33328;DHT22;19692;52.998;9.116;2022-10-24T05:52:59;12.80;99.90
33328;DHT22;19692;52.998;9.116;2022-10-24T05:55:25;12.80;99.90
33328;DHT22;19692;52.998;9.116;2022-10-24T05:57:51;12.80;99.90
33328;DHT22;19692;52.998;9.116;2022-10-24T06:00:17;12.80;99.90
33328;DHT22;19692;52.998;9.116;2022-10-24T06:02:43;12.90;99.90
33328;DHT22;19692;52.998;9.116;2022-10-24T06:05:10;12.90;99.90
33328;DHT22;19692;52.998;9.116;2022-10-24T06:07:37;13.00;99.90
33328;DHT22;19692;52.998;9.116;2022-10-24T06:10:06;13.00;99.90
33328;DHT22;19692;52.998;9.116;2022-10-24T06:12:33;13.00;99.90
33328;DHT22;19692;52.998;9.116;2022-10-24T06:15:01;13.00;99.90
33328;DHT22;19692;52.998;9.116;2022-10-24T06:17:29;13.00;99.90
33328;DHT22;19692;52.998;9.116;2022-10-24T06:19:55;13.00;99.90
33328;DHT22;19692;52.998;9.116;2022-10-24T06:22:21;13.00;99.90
33328;DHT22;19692;52.998;9.116;2022-10-24T06:24:49;13.00;99.90
33328;DHT22;19692;52.998;9.116;2022-10-24T06:27:14;13.10;99.90
33328;DHT22;19692;52.998;9.116;2022-10-24T06:29:41;13.10;99.90
33328;DHT22;19692;52.998;9.116;2022-10-24T06:32:06;13.00;99.90
33328;DHT22;19692;52.998;9.116;2022-10-24T06:34:32;13.00;99.90
33328;DHT22;19692;52.998;9.116;2022-10-24T06:36:58;13.10;99.90
33328;DHT22;19692;52.998;9.116;2022-10-24T06:39:24;13.00;99.90
33328;DHT22;19692;52.998;9.116;2022-10-24T06:41:50;13.10;99.90
33328;DHT22;19692;52.998;9.116;2022-10-24T06:44:16;13.10;99.90
33328;DHT22;19692;52.998;9.116;2022-10-24T06:46:41;13.10;99.90
33328;DHT22;19692;52.998;9.116;2022-10-24T06:49:07;13.10;99.90
33328;DHT22;19692;52.998;9.116;2022-10-24T06:51:34;13.10;99.90
33328;DHT22;19692;52.998;9.116;2022-10-24T06:54:00;13.10;99.90
33328;DHT22;19692;52.998;9.116;2022-10-24T06:56:26;13.10;99.90
33328;DHT22;19692;52.998;9.116;2022-10-24T06:58:52;13.10;99.90
33328;DHT22;19692;52.998;9.116;2022-10-24T07:01:20;13.20;99.90
33328;DHT22;19692;52.998;9.116;2022-10-24T07:03:47;13.10;99.90
33328;DHT22;19692;52.998;9.116;2022-10-24T07:06:22;13.10;99.90
33328;DHT22;19692;52.998;9.116;2022-10-24T07:08:53;13.10;99.90
33328;DHT22;19692;52.998;9.116;2022-10-24T07:11:21;13.10;99.90
33328;DHT22;19692;52.998;9.116;2022-10-24T07:13:47;13.20;99.90
33328;DHT22;19692;52.998;9.116;2022-10-24T07:16:13;13.10;99.90
33328;DHT22;19692;52.998;9.116;2022-10-24T07:18:40;13.20;99.90
33328;DHT22;19692;52.998;9.116;2022-10-24T07:21:13;13.20;99.90
33328;DHT22;19692;52.998;9.116;2022-10-24T07:23:40;13.20;99.90
33328;DHT22;19692;52.998;9.116;2022-10-24T07:26:12;13.20;99.90
33328;DHT22;19692;52.998;9.116;2022-10-24T07:28:39;13.20;99.90
33328;DHT22;19692;52.998;9.116;2022-10-24T07:31:06;13.40;99.90
33328;DHT22;19692;52.998;9.116;2022-10-24T07:33:35;13.40;99.90
33328;DHT22;19692;52.998;9.116;2022-10-24T07:36:01;13.50;99.90
33328;DHT22;19692;52.998;9.116;2022-10-24T07:38:27;13.50;99.90
33328;DHT22;19692;52.998;9.116;2022-10-24T07:40:53;13.50;99.90
33328;DHT22;19692;52.998;9.116;2022-10-24T07:43:19;13.50;99.90
33328;DHT22;19692;52.998;9.116;2022-10-24T07:45:45;13.50;99.90
33328;DHT22;19692;52.998;9.116;2022-10-24T07:48:11;13.50;99.90
33328;DHT22;19692;52.998;9.116;2022-10-24T07:50:45;13.60;99.90
33328;DHT22;19692;52.998;9.116;2022-10-24T07:53:12;13.70;99.90
33328;DHT22;19692;52.998;9.116;2022-10-24T07:55:39;13.80;99.90
33328;DHT22;19692;52.998;9.116;2022-10-24T07:58:06;13.90;99.90
33328;DHT22;19692;52.998;9.116;2022-10-24T08:00:33;14.20;99.90
33328;DHT22;19692;52.998;9.116;2022-10-24T08:02:59;14.30;99.90
33328;DHT22;19692;52.998;9.116;2022-10-24T08:05:25;14.40;99.90
33328;DHT22;19692;52.998;9.116;2022-10-24T08:07:50;14.50;99.90
33328;DHT22;19692;52.998;9.116;2022-10-24T08:10:16;14.60;99.90
33328;DHT22;19692;52.998;9.116;2022-10-24T08:12:42;14.70;99.90
33328;DHT22;19692;52.998;9.116;2022-10-24T08:15:09;14.80;99.90
33328;DHT22;19692;52.998;9.116;2022-10-24T08:17:35;14.80;99.90
33328;DHT22;19692;52.998;9.116;2022-10-24T08:20:03;14.80;99.90
33328;DHT22;19692;52.998;9.116;2022-10-24T08:22:30;14.80;99.90
33328;DHT22;19692;52.998;9.116;2022-10-24T08:24:58;14.90;99.90
33328;DHT22;19692;52.998;9.116;2022-10-24T08:27:24;15.00;99.90
33328;DHT22;19692;52.998;9.116;2022-10-24T08:29:50;15.00;99.90
33328;DHT22;19692;52.998;9.116;2022-10-24T08:32:16;15.10;99.90
33328;DHT22;19692;52.998;9.116;2022-10-24T08:34:41;15.10;99.90
33328;DHT22;19692;52.998;9.116;2022-10-24T08:37:07;15.20;99.90
33328;DHT22;19692;52.998;9.116;2022-10-24T08:39:33;15.30;99.90
33328;DHT22;19692;52.998;9.116;2022-10-24T08:42:05;15.30;99.90
33328;DHT22;19692;52.998;9.116;2022-10-24T08:44:35;15.40;99.90
33328;DHT22;19692;52.998;9.116;2022-10-24T08:53:07;15.70;99.90
33328;DHT22;19692;52.998;9.116;2022-10-24T08:58:25;15.90;99.90
33328;DHT22;19692;52.998;9.116;2022-10-24T09:00:56;15.90;99.90
33328;DHT22;19692;52.998;9.116;2022-10-24T09:03:48;16.00;99.90
33328;DHT22;19692;52.998;9.116;2022-10-24T09:06:18;16.00;99.90
33328;DHT22;19692;52.998;9.116;2022-10-24T09:08:54;16.00;99.90
33328;DHT22;19692;52.998;9.116;2022-10-24T09:11:43;16.20;99.90
33328;DHT22;19692;52.998;9.116;2022-10-24T09:14:16;16.40;99.90
33328;DHT22;19692;52.998;9.116;2022-10-24T09:16:57;16.70;99.90
33328;DHT22;19692;52.998;9.116;2022-10-24T09:19:27;16.90;99.90
33328;DHT22;19692;52.998;9.116;2022-10-24T09:21:56;17.10;99.90
33328;DHT22;19692;52.998;9.116;2022-10-24T09:24:40;17.40;99.90
33328;DHT22;19692;52.998;9.116;2022-10-24T09:27:16;17.60;99.90
33328;DHT22;19692;52.998;9.116;2022-10-24T09:29:45;17.70;99.90
33328;DHT22;19692;52.998;9.116;2022-10-24T09:32:20;17.90;99.90
33328;DHT22;19692;52.998;9.116;2022-10-24T09:34:48;18.10;99.90
33328;DHT22;19692;52.998;9.116;2022-10-24T09:37:44;18.10;99.90
33328;DHT22;19692;52.998;9.116;2022-10-24T09:43:05;18.40;99.90
33328;DHT22;19692;52.998;9.116;2022-10-24T09:45:39;18.60;99.90
33328;DHT22;19692;52.998;9.116;2022-10-24T09:48:21;18.60;99.90
33328;DHT22;19692;52.998;9.116;2022-10-24T09:56:46;18.70;99.90
33328;DHT22;19692;52.998;9.116;2022-10-24T10:00:02;18.80;99.90
33328;DHT22;19692;52.998;9.116;2022-10-24T10:02:24;19.20;99.90
33328;DHT22;19692;52.998;9.116;2022-10-24T10:07:30;19.00;99.90
33328;DHT22;19692;52.998;9.116;2022-10-24T10:10:02;18.70;99.90
33328;DHT22;19692;52.998;9.116;2022-10-24T10:12:39;18.40;99.90
33328;DHT22;19692;52.998;9.116;2022-10-24T10:15:19;18.20;99.90
33328;DHT22;19692;52.998;9.116;2022-10-24T10:17:54;18.00;99.90
33328;DHT22;19692;52.998;9.116;2022-10-24T10:20:38;18.00;99.90
33328;DHT22;19692;52.998;9.116;2022-10-24T10:23:41;18.00;99.90
33328;DHT22;19692;52.998;9.116;2022-10-24T10:26:17;18.10;99.90
33328;DHT22;19692;52.998;9.116;2022-10-24T10:29:02;18.20;99.90
33328;DHT22;19692;52.998;9.116;2022-10-24T10:31:39;18.50;99.90
33328;DHT22;19692;52.998;9.116;2022-10-24T10:34:27;18.80;99.90
33328;DHT22;19692;52.998;9.116;2022-10-24T10:45:33;18.60;99.90
33328;DHT22;19692;52.998;9.116;2022-10-24T10:54:28;18.00;99.90
33328;DHT22;19692;52.998;9.116;2022-10-24T10:57:03;17.90;99.90
33328;DHT22;19692;52.998;9.116;2022-10-24T11:02:16;17.70;99.90
33328;DHT22;19692;52.998;9.116;2022-10-24T11:08:31;17.90;99.90
33328;DHT22;19692;52.998;9.116;2022-10-24T11:11:18;17.90;99.90
33328;DHT22;19692;52.998;9.116;2022-10-24T11:14:21;17.90;99.90
33328;DHT22;19692;52.998;9.116;2022-10-24T11:17:30;17.90;99.90
33328;DHT22;19692;52.998;9.116;2022-10-24T11:22:35;18.00;99.90
33328;DHT22;19692;52.998;9.116;2022-10-24T11:31:00;18.00;99.90
33328;DHT22;19692;52.998;9.116;2022-10-24T11:33:55;18.00;99.90
33328;DHT22;19692;52.998;9.116;2022-10-24T11:36:51;17.90;99.90
33328;DHT22;19692;52.998;9.116;2022-10-24T11:39:24;17.70;99.90
33328;DHT22;19692;52.998;9.116;2022-10-24T11:45:13;17.80;99.90
33328;DHT22;19692;52.998;9.116;2022-10-24T11:47:56;17.90;99.90
33328;DHT22;19692;52.998;9.116;2022-10-24T11:50:38;18.00;99.90
33328;DHT22;19692;52.998;9.116;2022-10-24T11:53:44;18.00;99.90
33328;DHT22;19692;52.998;9.116;2022-10-24T11:56:33;18.00;99.90
33328;DHT22;19692;52.998;9.116;2022-10-24T11:59:06;18.10;99.90
33328;DHT22;19692;52.998;9.116;2022-10-24T12:10:56;17.80;99.90
33328;DHT22;19692;52.998;9.116;2022-10-24T12:19:39;17.60;99.90
33328;DHT22;19692;52.998;9.116;2022-10-24T12:22:05;17.60;99.90
33328;DHT22;19692;52.998;9.116;2022-10-24T12:24:33;17.70;99.90
33328;DHT22;19692;52.998;9.116;2022-10-24T12:27:03;17.70;99.90
33328;DHT22;19692;52.998;9.116;2022-10-24T12:29:32;17.70;99.90
33328;DHT22;19692;52.998;9.116;2022-10-24T12:32:23;17.70;99.90
33328;DHT22;19692;52.998;9.116;2022-10-24T12:34:58;17.70;99.90
33328;DHT22;19692;52.998;9.116;2022-10-24T12:39:52;17.60;99.90
33328;DHT22;19692;52.998;9.116;2022-10-24T12:45:31;17.50;99.90
33328;DHT22;19692;52.998;9.116;2022-10-24T12:52:48;17.20;99.90
33328;DHT22;19692;52.998;9.116;2022-10-24T12:55:30;16.90;99.90
33328;DHT22;19692;52.998;9.116;2022-10-24T12:57:56;16.70;99.90
33328;DHT22;19692;52.998;9.116;2022-10-24T13:00:28;16.70;99.90
33328;DHT22;19692;52.998;9.116;2022-10-24T13:03:22;16.60;99.90
33328;DHT22;19692;52.998;9.116;2022-10-24T13:06:13;16.70;99.90
33328;DHT22;19692;52.998;9.116;2022-10-24T13:09:19;16.70;99.90
33328;DHT22;19692;52.998;9.116;2022-10-24T13:20:43;16.90;99.90
33328;DHT22;19692;52.998;9.116;2022-10-24T13:23:20;17.00;99.90
33328;DHT22;19692;52.998;9.116;2022-10-24T13:25:54;17.10;99.90
33328;DHT22;19692;52.998;9.116;2022-10-24T13:36:20;18.20;99.90
33328;DHT22;19692;52.998;9.116;2022-10-24T13:41:36;18.30;99.90
33328;DHT22;19692;52.998;9.116;2022-10-24T13:44:06;18.00;99.90
33328;DHT22;19692;52.998;9.116;2022-10-24T13:47:10;17.70;99.90
33328;DHT22;19692;52.998;9.116;2022-10-24T13:50:04;17.40;99.90
33328;DHT22;19692;52.998;9.116;2022-10-24T13:52:36;17.20;99.90
33328;DHT22;19692;52.998;9.116;2022-10-24T13:55:25;17.00;99.90
33328;DHT22;19692;52.998;9.116;2022-10-24T13:58:09;16.70;99.90
33328;DHT22;19692;52.998;9.116;2022-10-24T14:00:39;16.50;99.90
33328;DHT22;19692;52.998;9.116;2022-10-24T14:03:19;16.20;99.90
33328;DHT22;19692;52.998;9.116;2022-10-24T14:08:42;16.20;99.90
33328;DHT22;19692;52.998;9.116;2022-10-24T14:11:18;16.20;99.90
33328;DHT22;19692;52.998;9.116;2022-10-24T14:13:48;16.10;99.90
33328;DHT22;19692;52.998;9.116;2022-10-24T14:16:27;16.00;99.90
33328;DHT22;19692;52.998;9.116;2022-10-24T14:21:43;15.90;99.90
33328;DHT22;19692;52.998;9.116;2022-10-24T14:24:19;15.80;99.90
33328;DHT22;19692;52.998;9.116;2022-10-24T14:26:48;15.80;99.90
33328;DHT22;19692;52.998;9.116;2022-10-24T14:29:27;15.70;99.90
33328;DHT22;19692;52.998;9.116;2022-10-24T14:32:00;15.70;99.90
33328;DHT22;19692;52.998;9.116;2022-10-24T14:34:28;15.70;99.90
33328;DHT22;19692;52.998;9.116;2022-10-24T14:36:59;15.60;99.90
33328;DHT22;19692;52.998;9.116;2022-10-24T14:39:28;15.60;99.90
33328;DHT22;19692;52.998;9.116;2022-10-24T14:41:54;15.60;99.90
33328;DHT22;19692;52.998;9.116;2022-10-24T14:44:21;15.70;99.90
33328;DHT22;19692;52.998;9.116;2022-10-24T14:47:22;15.70;99.90
33328;DHT22;19692;52.998;9.116;2022-10-24T14:49:54;15.60;99.90
33328;DHT22;19692;52.998;9.116;2022-10-24T14:52:30;15.60;99.90
33328;DHT22;19692;52.998;9.116;2022-10-24T14:55:05;15.60;99.90
33328;DHT22;19692;52.998;9.116;2022-10-24T14:57:38;15.60;99.90
33328;DHT22;19692;52.998;9.116;2022-10-24T15:00:07;15.70;99.90
33328;DHT22;19692;52.998;9.116;2022-10-24T15:02:45;15.70;99.90
33328;DHT22;19692;52.998;9.116;2022-10-24T15:08:00;15.50;99.90
33328;DHT22;19692;52.998;9.116;2022-10-24T15:10:41;15.50;99.90
33328;DHT22;19692;52.998;9.116;2022-10-24T15:13:14;15.50;99.90
33328;DHT22;19692;52.998;9.116;2022-10-24T15:15:56;15.50;99.90
33328;DHT22;19692;52.998;9.116;2022-10-24T15:18:35;15.50;99.90
33328;DHT22;19692;52.998;9.116;2022-10-24T15:21:14;15.60;99.90
33328;DHT22;19692;52.998;9.116;2022-10-24T15:23:49;15.60;99.90
33328;DHT22;19692;52.998;9.116;2022-10-24T15:26:32;15.60;99.90
33328;DHT22;19692;52.998;9.116;2022-10-24T15:31:31;15.50;99.90
33328;DHT22;19692;52.998;9.116;2022-10-24T15:33:59;15.60;99.90
33328;DHT22;19692;52.998;9.116;2022-10-24T15:36:27;15.60;99.90
33328;DHT22;19692;52.998;9.116;2022-10-24T15:38:57;15.50;99.90
33328;DHT22;19692;52.998;9.116;2022-10-24T15:41:25;15.40;99.90
33328;DHT22;19692;52.998;9.116;2022-10-24T15:43:52;15.40;99.90
33328;DHT22;19692;52.998;9.116;2022-10-24T15:46:18;15.40;99.90
33328;DHT22;19692;52.998;9.116;2022-10-24T15:48:44;15.40;99.90
33328;DHT22;19692;52.998;9.116;2022-10-24T15:51:15;15.40;99.90
33328;DHT22;19692;52.998;9.116;2022-10-24T15:53:44;15.30;99.90
33328;DHT22;19692;52.998;9.116;2022-10-24T15:56:11;15.30;99.90
33328;DHT22;19692;52.998;9.116;2022-10-24T15:58:38;15.40;99.90
33328;DHT22;19692;52.998;9.116;2022-10-24T16:01:04;15.40;99.90
33328;DHT22;19692;52.998;9.116;2022-10-24T16:03:31;15.30;99.90
33328;DHT22;19692;52.998;9.116;2022-10-24T16:05:58;15.40;99.90
33328;DHT22;19692;52.998;9.116;2022-10-24T16:08:24;15.40;99.90
33328;DHT22;19692;52.998;9.116;2022-10-24T16:10:51;15.40;99.90
33328;DHT22;19692;52.998;9.116;2022-10-24T16:13:19;15.40;99.90
33328;DHT22;19692;52.998;9.116;2022-10-24T16:15:47;15.40;99.90
33328;DHT22;19692;52.998;9.116;2022-10-24T16:18:13;15.40;99.90
33328;DHT22;19692;52.998;9.116;2022-10-24T16:20:39;15.30;99.90
33328;DHT22;19692;52.998;9.116;2022-10-24T16:23:06;15.40;99.90
33328;DHT22;19692;52.998;9.116;2022-10-24T16:25:35;15.40;99.90
33328;DHT22;19692;52.998;9.116;2022-10-24T16:28:05;15.40;99.90
33328;DHT22;19692;52.998;9.116;2022-10-24T16:30:34;15.40;99.90
33328;DHT22;19692;52.998;9.116;2022-10-24T16:33:00;15.30;99.90
33328;DHT22;19692;52.998;9.116;2022-10-24T16:35:29;15.30;99.90
33328;DHT22;19692;52.998;9.116;2022-10-24T16:37:57;15.20;99.90
33328;DHT22;19692;52.998;9.116;2022-10-24T16:40:24;15.20;99.90
33328;DHT22;19692;52.998;9.116;2022-10-24T16:42:52;15.10;99.90
33328;DHT22;19692;52.998;9.116;2022-10-24T16:45:20;15.00;99.90
33328;DHT22;19692;52.998;9.116;2022-10-24T16:47:46;15.00;99.90
33328;DHT22;19692;52.998;9.116;2022-10-24T16:50:16;15.00;99.90
33328;DHT22;19692;52.998;9.116;2022-10-24T16:52:55;15.00;99.90
33328;DHT22;19692;52.998;9.116;2022-10-24T16:55:28;15.00;99.90
33328;DHT22;19692;52.998;9.116;2022-10-24T16:57:54;15.00;99.90
33328;DHT22;19692;52.998;9.116;2022-10-24T17:00:21;15.00;99.90
33328;DHT22;19692;52.998;9.116;2022-10-24T17:02:49;15.00;99.90
33328;DHT22;19692;52.998;9.116;2022-10-24T17:05:17;15.10;99.90
33328;DHT22;19692;52.998;9.116;2022-10-24T17:07:44;15.00;99.90
33328;DHT22;19692;52.998;9.116;2022-10-24T17:10:11;15.10;99.90
33328;DHT22;19692;52.998;9.116;2022-10-24T17:12:39;15.00;99.90
33328;DHT22;19692;52.998;9.116;2022-10-24T17:15:06;15.00;99.90
33328;DHT22;19692;52.998;9.116;2022-10-24T17:17:33;15.10;99.90
33328;DHT22;19692;52.998;9.116;2022-10-24T17:20:00;14.90;99.90
33328;DHT22;19692;52.998;9.116;2022-10-24T17:22:27;14.80;99.90
33328;DHT22;19692;52.998;9.116;2022-10-24T17:24:53;14.80;99.90
33328;DHT22;19692;52.998;9.116;2022-10-24T17:27:20;14.70;99.90
33328;DHT22;19692;52.998;9.116;2022-10-24T17:29:47;14.70;99.90
33328;DHT22;19692;52.998;9.116;2022-10-24T17:32:13;14.50;99.90
33328;DHT22;19692;52.998;9.116;2022-10-24T17:34:41;14.60;99.90
33328;DHT22;19692;52.998;9.116;2022-10-24T17:37:18;14.50;99.90
33328;DHT22;19692;52.998;9.116;2022-10-24T17:39:58;14.50;99.90
33328;DHT22;19692;52.998;9.116;2022-10-24T17:42:28;14.50;99.90
33328;DHT22;19692;52.998;9.116;2022-10-24T17:44:53;14.50;99.90
33328;DHT22;19692;52.998;9.116;2022-10-24T17:47:19;14.50;99.90
33328;DHT22;19692;52.998;9.116;2022-10-24T17:49:45;14.40;99.90
33328;DHT22;19692;52.998;9.116;2022-10-24T17:52:12;14.40;99.90
33328;DHT22;19692;52.998;9.116;2022-10-24T17:54:44;14.40;99.90
33328;DHT22;19692;52.998;9.116;2022-10-24T17:57:09;14.40;99.90
33328;DHT22;19692;52.998;9.116;2022-10-24T17:59:35;14.30;99.90
33328;DHT22;19692;52.998;9.116;2022-10-24T18:02:01;14.30;99.90
33328;DHT22;19692;52.998;9.116;2022-10-24T18:04:27;14.20;99.90